Time;durP1;ratioP1;P1;durP2;ratioP2;P2;SDS_P1;SDS_P2;PMS_P1;PMS_P2;Temp;Humidity;BMP_temperature;BMP_pressure;BME280_temperature;BME280_humidity;BME280_pressure;Samples;Min_cycle;Max_cycle;Signal;HPM_P1;HPM_P2
2021/01/13 00:00:27;;;;;;;3.95;1.20;;;;;;;0.85;79.70;100462.63;5002947;28;64358;-68
2021/01/13 00:02:53;;;;;;;3.70;0.77;;;;;;;0.92;79.50;100473.44;5008986;28;62629;-68
2021/01/13 00:05:19;;;;;;;1.80;0.50;;;;;;;0.91;80.03;100467.34;4998690;28;63163;-68
2021/01/13 00:07:50;;;;;;;1.55;0.80;;;;;;;0.92;79.84;100473.44;5009954;28;63018;-67
2021/01/13 00:10:17;;;;;;;2.25;0.95;;;;;;;0.84;80.29;100466.19;4987634;28;63478;-68
2021/01/13 00:12:43;;;;;;;4.45;0.80;;;;;;;0.88;80.10;100469.41;4996285;28;62679;-69
2021/01/13 00:15:09;;;;;;;6.30;1.02;;;;;;;0.87;80.12;100459.88;5002823;28;62710;-68
2021/01/13 00:17:36;;;;;;;4.55;1.25;;;;;;;0.87;80.28;100467.72;5002693;28;62689;-69
2021/01/13 00:20:05;;;;;;;3.50;0.93;;;;;;;0.86;80.82;100464.28;5004970;28;63854;-68
2021/01/13 00:22:31;;;;;;;4.05;0.70;;;;;;;0.86;80.52;100460.84;5002165;28;62641;-68
2021/01/13 00:24:57;;;;;;;5.18;1.00;;;;;;;0.86;80.97;100469.50;5002687;28;62816;-69
2021/01/13 00:27:25;;;;;;;2.30;1.02;;;;;;;0.82;80.98;100463.69;4990209;28;62685;-67
2021/01/13 00:29:53;;;;;;;5.00;0.95;;;;;;;0.88;80.77;100477.22;5001366;28;63477;-68
2021/01/13 00:32:19;;;;;;;2.70;0.55;;;;;;;0.86;81.04;100458.25;5005118;28;62662;-69
2021/01/13 00:34:46;;;;;;;7.82;0.80;;;;;;;0.87;81.33;100462.50;4999234;28;63638;-69
2021/01/13 00:37:13;;;;;;;3.35;0.95;;;;;;;0.84;81.01;100462.75;5007694;28;62655;-69
2021/01/13 00:39:44;;;;;;;5.70;0.70;;;;;;;0.85;81.36;100464.41;5001461;28;63780;-67
2021/01/13 00:42:14;;;;;;;4.95;1.35;;;;;;;0.86;81.61;100458.25;4987967;28;63148;-69
2021/01/13 00:44:40;;;;;;;4.60;0.85;;;;;;;0.87;81.40;100465.97;5003745;28;62670;-69
2021/01/13 00:47:06;;;;;;;6.30;1.33;;;;;;;0.80;80.89;100454.31;4988365;28;62791;-69
2021/01/13 00:49:32;;;;;;;7.07;1.00;;;;;;;0.87;80.94;100460.75;5002212;28;63676;-69
2021/01/13 00:51:58;;;;;;;2.50;0.45;;;;;;;0.87;81.25;100463.34;5003185;28;62738;-70
2021/01/13 00:54:24;;;;;;;6.85;0.70;;;;;;;0.86;81.69;100466.06;4998799;28;62589;-71
2021/01/13 00:56:50;;;;;;;10.30;2.25;;;;;;;0.87;81.44;100454.66;4999185;28;63312;-71
2021/01/13 00:59:16;;;;;;;1.45;0.55;;;;;;;0.85;81.83;100462.63;4997105;28;64762;-70
2021/01/13 01:01:45;;;;;;;2.72;0.98;;;;;;;0.85;81.45;100467.00;5002219;28;62759;-70
2021/01/13 01:04:12;;;;;;;2.42;0.65;;;;;;;0.88;81.62;100456.34;5007101;28;62650;-70
2021/01/13 01:06:39;;;;;;;4.95;1.17;;;;;;;0.84;82.08;100466.19;5005484;28;62784;-70
2021/01/13 01:09:07;;;;;;;3.05;1.10;;;;;;;0.83;81.46;100467.16;5000070;28;64490;-70
2021/01/13 01:11:36;;;;;;;4.88;0.88;;;;;;;0.82;81.91;100468.91;5001679;28;62582;-70
2021/01/13 01:14:05;;;;;;;2.53;0.73;;;;;;;0.84;81.90;100486.25;4981893;28;62737;-69
2021/01/13 01:16:36;;;;;;;2.70;0.98;;;;;;;0.84;81.50;100481.03;5010392;28;62775;-70
2021/01/13 01:19:04;;;;;;;4.30;0.70;;;;;;;0.86;81.43;100494.81;5004379;28;64614;-71
2021/01/13 01:21:31;;;;;;;4.88;0.93;;;;;;;0.85;81.15;100482.66;4998508;28;63181;-71
2021/01/13 01:23:58;;;;;;;3.80;0.93;;;;;;;0.82;80.78;100484.56;5006721;28;62805;-69
2021/01/13 01:26:25;;;;;;;5.20;0.70;;;;;;;0.87;80.81;100491.22;5004149;28;62871;-69
2021/01/13 01:28:51;;;;;;;2.97;0.80;;;;;;;0.87;81.12;100491.22;5006604;28;63746;-69
2021/01/13 01:31:18;;;;;;;1.63;0.60;;;;;;;0.91;81.15;100497.88;5001281;28;62692;-69
2021/01/13 01:33:44;;;;;;;3.85;1.13;;;;;;;0.92;81.10;100489.09;5010196;28;63287;-70
2021/01/13 01:36:10;;;;;;;4.60;1.13;;;;;;;0.91;80.96;100503.91;4997402;28;62653;-70
2021/01/13 01:38:36;;;;;;;1.08;0.30;;;;;;;0.89;80.90;100510.22;4982934;28;63886;-71
2021/01/13 01:41:07;;;;;;;2.30;0.93;;;;;;;0.85;81.35;100500.94;5004234;28;62705;-70
2021/01/13 01:43:35;;;;;;;4.40;0.88;;;;;;;0.86;81.35;100510.47;4990305;28;62567;-70
2021/01/13 01:46:04;;;;;;;6.13;0.85;;;;;;;0.85;81.40;100501.81;5001458;28;63111;-70
2021/01/13 01:48:41;;;;;;;2.40;0.63;;;;;;;0.88;81.03;100501.56;5005248;28;65038;-69
2021/01/13 01:51:07;;;;;;;4.03;0.90;;;;;;;0.89;80.97;100499.78;5005609;28;62659;-69
2021/01/13 01:53:48;;;;;;;2.15;0.55;;;;;;;0.88;80.78;100498.13;5003469;28;62735;-70
2021/01/13 01:56:28;;;;;;;3.38;1.13;;;;;;;0.88;80.87;100492.91;5002971;28;62665;-70
2021/01/13 01:59:02;;;;;;;2.03;0.68;;;;;;;0.91;80.58;100508.31;4994129;28;63816;-69
2021/01/13 02:01:31;;;;;;;11.95;0.93;;;;;;;0.91;80.49;100497.88;5001379;28;62672;-70
2021/01/13 02:04:29;;;;;;;3.08;0.57;;;;;;;0.98;80.08;100506.94;5001110;28;63640;-68
2021/01/13 02:06:58;;;;;;;2.53;0.60;;;;;;;1.02;79.92;100508.34;5002416;28;63116;-66
2021/01/13 02:09:26;;;;;;;2.25;0.52;;;;;;;1.05;79.81;100509.91;4982390;28;64433;-67
2021/01/13 02:11:55;;;;;;;1.50;0.43;;;;;;;1.07;79.65;100514.03;4996515;28;62690;-68
2021/01/13 02:14:24;;;;;;;0.68;0.52;;;;;;;1.09;79.56;100512.16;4991621;28;63604;-68
2021/01/13 02:16:53;;;;;;;1.60;0.57;;;;;;;1.11;79.50;100512.03;5002978;28;62701;-69
2021/01/13 02:19:37;;;;;;;3.65;0.70;;;;;;;1.09;79.53;100511.31;5002162;28;63372;-67
2021/01/13 02:22:12;;;;;;;1.58;0.80;;;;;;;1.06;79.80;100509.75;4984864;28;62755;-67
2021/01/13 02:25:12;;;;;;;5.97;0.73;;;;;;;1.06;79.55;100514.97;4979709;28;62969;-69
2021/01/13 02:28:17;;;;;;;4.20;0.50;;;;;;;1.05;80.15;100510.72;5001583;28;62654;-70
2021/01/13 02:30:54;;;;;;;1.90;0.50;;;;;;;0.94;80.24;100508.09;4983920;28;63150;-70
2021/01/13 02:33:39;;;;;;;3.97;0.73;;;;;;;0.98;80.04;100512.16;5000060;28;62730;-69
2021/01/13 02:36:42;;;;;;;3.00;1.17;;;;;;;0.97;80.38;100513.09;5004346;28;63708;-70
2021/01/13 02:39:10;;;;;;;0.90;0.60;;;;;;;0.93;80.16;100501.19;5008322;28;62760;-70
2021/01/13 02:41:44;;;;;;;4.13;0.63;;;;;;;0.94;79.97;100513.31;5004960;28;64714;-70
2021/01/13 02:44:12;;;;;;;6.90;0.68;;;;;;;0.90;80.60;100502.28;4989770;28;63199;-70
2021/01/13 02:46:39;;;;;;;1.38;0.70;;;;;;;0.91;80.22;100509.16;4987022;28;62702;-71
2021/01/13 02:49:12;;;;;;;1.95;0.65;;;;;;;0.93;80.39;100501.19;5002311;28;62683;-71
2021/01/13 02:51:40;;;;;;;4.18;0.70;;;;;;;0.95;79.83;100494.91;5010193;28;63662;-71
2021/01/13 02:54:40;;;;;;;2.70;0.80;;;;;;;0.98;79.88;100509.53;5001881;28;62628;-70
2021/01/13 02:57:17;;;;;;;4.68;0.57;;;;;;;0.97;79.65;100503.47;4971655;28;62873;-70
2021/01/13 02:59:46;;;;;;;3.38;0.80;;;;;;;1.01;79.90;100506.69;5007832;28;63147;-70
2021/01/13 03:02:13;;;;;;;3.72;0.73;;;;;;;0.99;79.57;100492.91;5005191;28;64667;-71
2021/01/13 03:04:40;;;;;;;1.83;0.68;;;;;;;1.00;79.67;100499.81;5004790;28;62670;-71
2021/01/13 03:07:25;;;;;;;2.75;0.70;;;;;;;1.05;79.24;100515.94;4988999;28;62481;-71
2021/01/13 03:09:57;;;;;;;4.18;0.75;;;;;;;1.09;78.66;100499.09;5003832;28;62058;-71
2021/01/13 03:12:26;;;;;;;1.58;0.50;;;;;;;1.15;78.53;100482.94;4983935;28;62832;-70
2021/01/13 03:14:54;;;;;;;1.77;0.60;;;;;;;1.20;78.26;100501.69;4980744;28;62858;-70
2021/01/13 03:17:23;;;;;;;3.85;1.15;;;;;;;1.27;78.22;100496.00;4985315;28;63036;-71
2021/01/13 03:20:12;;;;;;;1.58;0.80;;;;;;;1.33;77.30;100498.94;5005849;28;62989;-71
2021/01/13 03:23:06;;;;;;;1.38;0.63;;;;;;;1.36;77.02;100487.41;4992054;28;64866;-70
2021/01/13 03:25:37;;;;;;;6.25;0.50;;;;;;;1.44;77.17;100505.94;4988718;28;62513;-71
2021/01/13 03:28:05;;;;;;;3.67;0.93;;;;;;;1.47;77.23;100492.66;5003752;28;63110;-70
2021/01/13 03:30:33;;;;;;;5.32;0.70;;;;;;;1.51;77.13;100496.69;5009111;28;62649;-70
2021/01/13 03:33:07;;;;;;;3.45;0.90;;;;;;;1.55;76.88;100485.03;5004478;28;63908;-69
2021/01/13 03:35:40;;;;;;;1.70;0.40;;;;;;;1.59;76.90;100478.63;5004309;28;62654;-67
2021/01/13 03:38:15;;;;;;;6.20;1.48;;;;;;;1.61;76.77;100481.09;5007174;28;62583;-68
2021/01/13 03:40:43;;;;;;;3.55;1.00;;;;;;;1.60;76.84;100480.25;5007877;28;62727;-68
2021/01/13 03:43:21;;;;;;;8.35;1.02;;;;;;;1.63;76.82;100485.22;5008467;28;63764;-67
2021/01/13 03:45:50;;;;;;;3.42;0.55;;;;;;;1.65;76.69;100494.75;5002637;28;63754;-67
2021/01/13 03:48:47;;;;;;;4.70;0.55;;;;;;;1.69;76.66;100496.16;5007904;28;62392;-67
2021/01/13 03:51:25;;;;;;;4.50;0.95;;;;;;;1.72;76.16;100491.53;5003778;28;62862;-67
2021/01/13 03:53:52;;;;;;;3.45;0.80;;;;;;;1.71;76.41;100486.41;5003276;28;63804;-66
2021/01/13 03:56:26;;;;;;;9.43;1.67;;;;;;;1.72;76.01;100493.31;5006511;28;62664;-67
2021/01/13 03:58:56;;;;;;;6.18;0.95;;;;;;;1.71;76.47;100491.66;5007521;28;63364;-67
2021/01/13 04:01:22;;;;;;;1.38;0.55;;;;;;;1.75;75.98;100514.00;5003461;28;62914;-64
2021/01/13 04:04:05;;;;;;;3.30;0.90;;;;;;;1.71;76.30;100497.72;5004537;28;63735;-64
2021/01/13 04:06:41;;;;;;;5.63;1.38;;;;;;;1.70;76.38;100497.81;5002776;28;62587;-65
2021/01/13 04:09:10;;;;;;;1.52;0.70;;;;;;;1.68;76.05;100494.50;5009410;28;62593;-64
2021/01/13 04:11:36;;;;;;;1.52;0.60;;;;;;;1.66;76.27;100484.19;5005242;28;62947;-65
2021/01/13 04:14:05;;;;;;;8.60;0.73;;;;;;;1.63;76.36;100490.47;5005653;28;64212;-65
2021/01/13 04:16:37;;;;;;;3.50;0.50;;;;;;;1.70;76.58;100482.13;4996410;28;62464;-66
2021/01/13 04:19:05;;;;;;;7.32;0.73;;;;;;;1.74;76.44;100486.16;4982354;28;62716;-66
2021/01/13 04:21:32;;;;;;;0.88;0.50;;;;;;;1.76;76.13;100497.34;5007951;28;62512;-67
2021/01/13 04:24:00;;;;;;;2.28;0.70;;;;;;;1.78;76.63;100482.34;5000772;28;62649;-67
2021/01/13 04:26:28;;;;;;;6.43;0.60;;;;;;;1.77;76.34;100475.47;5008535;28;62604;-65
2021/01/13 04:28:55;;;;;;;3.72;0.60;;;;;;;1.73;76.55;100487.13;5002118;28;62618;-67
2021/01/13 04:31:24;;;;;;;2.58;1.02;;;;;;;1.72;76.41;100478.47;5009795;28;62789;-67
2021/01/13 04:33:52;;;;;;;4.22;1.45;;;;;;;1.71;76.92;100479.41;4998656;28;63909;-69
2021/01/13 04:36:20;;;;;;;6.57;1.20;;;;;;;1.78;77.36;100490.19;4991637;28;62502;-67
2021/01/13 04:38:49;;;;;;;3.22;1.20;;;;;;;1.78;77.48;100482.34;5006267;28;62578;-69
2021/01/13 04:41:17;;;;;;;2.83;0.73;;;;;;;1.78;77.67;100482.34;4992121;28;63444;-69
2021/01/13 04:44:12;;;;;;;5.28;0.60;;;;;;;1.78;77.87;100479.72;4997143;28;63808;-69
2021/01/13 04:46:49;;;;;;;1.80;0.65;;;;;;;1.76;77.90;100490.31;4988308;28;62618;-67
2021/01/13 04:49:21;;;;;;;2.38;1.15;;;;;;;1.72;78.29;100477.59;5005574;28;62858;-67
2021/01/13 04:51:48;;;;;;;6.70;0.95;;;;;;;1.65;78.84;100468.59;4995189;28;62609;-67
2021/01/13 04:54:16;;;;;;;3.63;1.00;;;;;;;1.68;78.66;100476.19;5007433;28;63435;-67
2021/01/13 04:56:45;;;;;;;6.20;0.70;;;;;;;1.68;78.80;100479.66;5008795;28;63454;-69
2021/01/13 04:59:29;;;;;;;2.85;0.80;;;;;;;1.70;78.71;100479.50;5008108;28;62650;-70
2021/01/13 05:02:01;;;;;;;4.22;0.60;;;;;;;1.73;78.53;100474.06;4990759;28;63872;-68
2021/01/13 05:04:27;;;;;;;6.63;1.85;;;;;;;1.75;78.18;100480.81;5006821;28;63974;-67
2021/01/13 05:07:13;;;;;;;2.67;0.63;;;;;;;1.76;78.27;100474.63;5001109;28;62571;-67
2021/01/13 05:10:09;;;;;;;2.63;0.77;;;;;;;1.78;78.20;100459.63;5002277;28;62562;-67
2021/01/13 05:12:44;;;;;;;2.53;0.75;;;;;;;1.78;78.17;100469.28;5001042;28;62714;-67
2021/01/13 05:15:24;;;;;;;4.47;1.05;;;;;;;1.80;78.06;100464.75;5004104;28;62620;-69
2021/01/13 05:18:10;;;;;;;3.55;0.75;;;;;;;1.83;78.36;100467.13;5010627;28;62624;-70
2021/01/13 05:20:43;;;;;;;2.17;0.60;;;;;;;1.85;78.25;100467.84;4991535;28;63662;-70
2021/01/13 05:23:14;;;;;;;5.82;0.90;;;;;;;1.87;78.16;100462.47;4991158;28;62615;-70
2021/01/13 05:25:46;;;;;;;4.30;1.00;;;;;;;1.82;77.93;100455.00;4990273;28;63612;-70
2021/01/13 05:28:21;;;;;;;4.75;0.98;;;;;;;1.85;77.79;100462.59;4990304;28;62883;-67
2021/01/13 05:31:11;;;;;;;2.20;0.88;;;;;;;1.92;77.76;100466.38;5012371;28;63576;-69
2021/01/13 05:33:39;;;;;;;5.32;0.93;;;;;;;1.93;77.65;100457.56;4986090;28;62679;-69
2021/01/13 05:36:05;;;;;;;2.95;0.60;;;;;;;1.96;77.85;100453.88;5001511;28;63926;-67
2021/01/13 05:38:56;;;;;;;3.33;0.80;;;;;;;1.99;78.01;100451.00;5009420;28;63596;-67
2021/01/13 05:41:27;;;;;;;3.38;0.60;;;;;;;2.02;78.26;100453.38;5001677;28;62515;-69
2021/01/13 05:44:03;;;;;;;4.85;1.00;;;;;;;1.89;79.58;100445.72;4990660;28;62614;-72
2021/01/13 05:46:46;;;;;;;4.75;1.13;;;;;;;1.80;80.59;100459.53;5002282;28;64922;-73
2021/01/13 05:49:14;;;;;;;2.75;0.93;;;;;;;1.65;81.32;100450.31;5000134;28;63166;-75
2021/01/13 05:51:43;;;;;;;2.53;0.85;;;;;;;1.60;82.27;100450.69;5005703;28;62859;-74
2021/01/13 05:54:16;;;;;;;2.33;0.50;;;;;;;1.62;82.47;100446.97;5005562;28;62707;-73
2021/01/13 05:56:44;;;;;;;2.55;0.93;;;;;;;1.59;82.43;100441.16;5001918;28;63971;-73
2021/01/13 05:59:11;;;;;;;11.20;1.02;;;;;;;1.59;82.86;100447.25;4988288;28;62656;-72
2021/01/13 06:01:55;;;;;;;0.80;0.50;;;;;;;1.62;82.23;100440.94;5008063;28;62802;-67
2021/01/13 06:04:23;;;;;;;2.22;0.98;;;;;;;1.60;82.38;100443.66;4999558;28;62790;-67
2021/01/13 06:06:57;;;;;;;2.33;0.50;;;;;;;1.61;82.82;100449.72;4987415;28;62731;-67
2021/01/13 06:09:23;;;;;;;2.67;0.63;;;;;;;1.58;82.55;100449.97;4988011;28;63245;-70
2021/01/13 06:11:55;;;;;;;3.28;0.80;;;;;;;1.62;82.91;100440.94;5008371;28;62698;-67
2021/01/13 06:14:27;;;;;;;1.98;0.73;;;;;;;1.59;83.12;100431.56;4999847;28;63014;-68
2021/01/13 06:16:54;;;;;;;6.50;1.63;;;;;;;1.59;82.76;100433.31;5005393;28;64897;-68
2021/01/13 06:19:22;;;;;;;1.17;0.40;;;;;;;1.60;82.49;100443.66;5002732;28;63134;-69
2021/01/13 06:22:11;;;;;;;1.20;0.50;;;;;;;1.60;82.86;100438.44;5006719;28;62688;-69
2021/01/13 06:24:38;;;;;;;4.20;1.08;;;;;;;1.62;82.36;100431.28;5005795;28;62703;-68
2021/01/13 06:27:29;;;;;;;4.85;0.90;;;;;;;1.62;82.57;100425.25;5008843;28;63536;-67
2021/01/13 06:30:03;;;;;;;3.63;0.75;;;;;;;1.62;82.82;100420.84;4988324;28;63171;-68
2021/01/13 06:32:45;;;;;;;0.60;0.40;;;;;;;1.58;82.39;100414.19;5009682;28;62595;-68
2021/01/13 06:35:49;;;;;;;1.60;0.70;;;;;;;1.63;82.86;100422.47;5006684;28;62484;-67
2021/01/13 06:38:32;;;;;;;2.95;0.77;;;;;;;1.56;82.97;100420.50;4992074;28;63872;-66
2021/01/13 06:40:59;;;;;;;1.52;0.70;;;;;;;1.65;82.60;100418.94;5005795;28;62535;-69
2021/01/13 06:43:26;;;;;;;1.02;0.70;;;;;;;1.68;82.58;100421.28;5004686;28;62555;-68
2021/01/13 06:45:52;;;;;;;1.60;0.60;;;;;;;1.63;82.47;100425.09;5012745;28;62588;-66
2021/01/13 06:48:28;;;;;;;2.90;0.80;;;;;;;1.69;82.19;100436.84;4999835;28;63596;-66
2021/01/13 06:50:56;;;;;;;1.60;0.60;;;;;;;1.70;82.78;100437.69;5010881;28;62580;-66
2021/01/13 06:53:31;;;;;;;5.43;0.90;;;;;;;1.73;82.73;100432.22;4984104;28;62816;-66
2021/01/13 06:56:00;;;;;;;2.95;1.27;;;;;;;1.69;82.73;100421.16;5007248;28;62639;-66
2021/01/13 06:58:27;;;;;;;4.43;0.88;;;;;;;1.69;82.68;100429.00;5001238;28;64837;-66
2021/01/13 07:01:02;;;;;;;6.90;1.08;;;;;;;1.63;82.81;100432.94;5009495;28;63515;-66
2021/01/13 07:03:30;;;;;;;5.40;0.80;;;;;;;1.68;83.92;100429.13;4989220;28;62712;-66
2021/01/13 07:06:00;;;;;;;3.92;1.13;;;;;;;1.57;83.42;100438.69;5010372;28;62751;-66
2021/01/13 07:08:27;;;;;;;3.22;0.70;;;;;;;1.55;84.34;100443.22;5004525;28;63512;-66
2021/01/13 07:11:07;;;;;;;2.17;0.88;;;;;;;1.53;84.55;100442.50;5004379;28;62861;-66
2021/01/13 07:13:37;;;;;;;2.20;0.88;;;;;;;1.49;84.67;100430.63;5010562;28;63048;-68
2021/01/13 07:16:04;;;;;;;2.85;0.90;;;;;;;1.50;84.86;100437.50;5003929;28;62704;-69
2021/01/13 07:18:35;;;;;;;4.28;0.90;;;;;;;1.45;85.08;100439.66;5004820;28;63752;-67
2021/01/13 07:21:11;;;;;;;4.90;1.27;;;;;;;1.52;85.09;100440.81;4989418;28;62582;-69
2021/01/13 07:23:43;;;;;;;1.88;0.73;;;;;;;1.52;84.80;100430.38;4980915;28;63147;-68
2021/01/13 07:26:11;;;;;;;5.15;0.95;;;;;;;1.48;84.64;100439.41;4973129;28;62855;-69
2021/01/13 07:28:39;;;;;;;2.17;0.70;;;;;;;1.51;85.04;100438.31;4995601;28;64648;-69
2021/01/13 07:31:08;;;;;;;6.53;1.20;;;;;;;1.53;84.72;100439.88;4999639;28;61975;-67
2021/01/13 07:33:49;;;;;;;4.60;1.15;;;;;;;1.58;84.76;100440.34;5005665;28;62935;-67
2021/01/13 07:36:19;;;;;;;3.30;0.70;;;;;;;1.65;85.02;100450.31;5010108;28;62554;-67
2021/01/13 07:38:48;;;;;;;4.20;0.95;;;;;;;1.67;84.28;100448.41;5009234;28;63698;-67
2021/01/13 07:41:44;;;;;;;7.13;1.58;;;;;;;1.68;85.06;100435.22;5007957;28;62587;-68
2021/01/13 07:44:25;;;;;;;3.75;0.60;;;;;;;1.75;84.69;100446.00;5002504;28;62590;-66
2021/01/13 07:47:01;;;;;;;2.60;1.08;;;;;;;1.69;84.44;100446.50;5006970;28;62670;-66
2021/01/13 07:50:04;;;;;;;1.27;0.50;;;;;;;1.81;84.24;100456.78;4995743;28;63726;-67
2021/01/13 07:52:41;;;;;;;2.13;0.45;;;;;;;1.78;83.93;100445.72;5004608;28;61924;-66
2021/01/13 07:55:25;;;;;;;2.63;0.75;;;;;;;1.84;83.58;100450.47;4995676;28;62507;-66
2021/01/13 07:57:53;;;;;;;2.75;0.80;;;;;;;1.89;82.93;100456.19;4993690;28;61949;-67
2021/01/13 08:00:27;;;;;;;3.90;0.95;;;;;;;1.90;82.67;100441.31;4986950;28;62950;-66
2021/01/13 08:03:08;;;;;;;1.05;0.60;;;;;;;1.95;82.77;100453.03;5010391;28;62737;-66
2021/01/13 08:06:00;;;;;;;1.15;0.65;;;;;;;2.03;82.41;100463.72;4986670;28;63329;-68
2021/01/13 08:08:42;;;;;;;1.63;0.80;;;;;;;2.11;81.92;100468.31;5001584;28;62045;-68
2021/01/13 08:11:37;;;;;;;1.77;0.70;;;;;;;2.15;82.00;100453.22;4986949;28;62679;-68
2021/01/13 08:14:18;;;;;;;2.25;0.90;;;;;;;2.16;82.04;100444.41;4989460;28;62799;-67
2021/01/13 08:16:47;;;;;;;2.65;0.82;;;;;;;2.19;81.68;100459.81;5008892;28;62744;-65
2021/01/13 08:19:52;;;;;;;3.35;1.13;;;;;;;2.22;81.52;100459.59;5001647;28;62368;-67
2021/01/13 08:22:24;;;;;;;3.88;1.20;;;;;;;2.24;81.35;100465.53;5009819;28;63737;-65
2021/01/13 08:24:59;;;;;;;4.38;0.60;;;;;;;2.26;81.10;100454.94;4999678;28;62827;-65
2021/01/13 08:27:27;;;;;;;2.95;1.33;;;;;;;2.31;80.83;100458.00;4989035;28;62924;-65
2021/01/13 08:29:59;;;;;;;2.95;0.70;;;;;;;2.35;80.88;100449.75;5009105;28;62583;-68
2021/01/13 08:32:49;;;;;;;2.92;0.98;;;;;;;2.40;80.81;100444.97;4989732;28;65711;-67
2021/01/13 08:35:24;;;;;;;3.97;1.10;;;;;;;2.32;80.59;100450.03;5000834;28;62782;-67
2021/01/13 08:38:08;;;;;;;5.07;1.88;;;;;;;2.43;80.42;100447.34;5008986;28;62403;-67
2021/01/13 08:40:39;;;;;;;1.48;0.70;;;;;;;2.45;80.06;100447.22;4988424;28;62758;-66
2021/01/13 08:43:18;;;;;;;1.77;0.80;;;;;;;2.49;79.63;100445.16;5014232;28;62204;-66
2021/01/13 08:45:47;;;;;;;2.00;1.10;;;;;;;2.49;79.71;100451.25;5017763;28;62458;-67
2021/01/13 08:48:18;;;;;;;3.08;0.90;;;;;;;2.53;79.40;100457.03;4997423;28;62627;-66
2021/01/13 08:51:23;;;;;;;5.75;1.17;;;;;;;2.51;78.99;100459.78;4997440;28;62775;-67
2021/01/13 08:53:51;;;;;;;2.28;1.45;;;;;;;2.57;79.18;100455.81;4973620;28;63774;-70
2021/01/13 08:56:19;;;;;;;3.10;0.70;;;;;;;2.60;78.49;100459.00;5005955;28;62721;-70
2021/01/13 08:58:54;;;;;;;3.40;1.00;;;;;;;2.70;78.88;100458.22;5013971;28;62534;-71
2021/01/13 09:01:37;;;;;;;4.05;1.65;;;;;;;2.72;78.28;100465.03;5001342;28;62800;-70
2021/01/13 09:04:06;;;;;;;5.20;0.88;;;;;;;2.81;78.85;100460.78;5003634;28;64224;-70
2021/01/13 09:06:33;;;;;;;2.40;1.10;;;;;;;2.80;78.69;100453.88;5001709;28;62285;-70
2021/01/13 09:09:11;;;;;;;3.10;0.80;;;;;;;2.73;78.47;100453.56;5013922;28;62598;-70
2021/01/13 09:11:40;;;;;;;4.78;1.10;;;;;;;2.81;78.44;100451.13;5000038;28;61967;-71
2021/01/13 09:14:27;;;;;;;2.45;0.90;;;;;;;2.75;77.93;100451.66;5013172;28;62665;-69
2021/01/13 09:16:57;;;;;;;0.70;0.70;;;;;;;2.82;77.97;100447.53;4983856;28;62328;-69
2021/01/13 09:19:31;;;;;;;1.70;0.65;;;;;;;2.90;77.95;100454.75;4985242;28;62442;-69
2021/01/13 09:22:02;;;;;;;1.75;0.88;;;;;;;2.95;77.63;100467.44;5001644;28;64222;-69
2021/01/13 09:24:40;;;;;;;4.38;0.90;;;;;;;2.98;78.27;100454.94;5005843;28;62363;-71
2021/01/13 09:27:09;;;;;;;3.85;0.90;;;;;;;3.03;77.98;100450.09;4990172;28;62334;-71
2021/01/13 09:29:56;;;;;;;2.38;0.90;;;;;;;3.09;77.30;100447.94;5001165;28;62610;-70
2021/01/13 09:32:27;;;;;;;4.45;0.90;;;;;;;3.12;77.28;100448.47;5008829;28;62808;-70
2021/01/13 09:34:54;;;;;;;1.52;0.88;;;;;;;3.09;76.70;100437.44;5007950;28;64271;-70
2021/01/13 09:37:22;;;;;;;2.33;0.70;;;;;;;3.05;77.03;100452.59;4986635;28;62708;-69
2021/01/13 09:39:59;;;;;;;5.43;1.10;;;;;;;3.01;76.76;100472.16;5002080;28;62554;-69
2021/01/13 09:42:41;;;;;;;4.10;0.65;;;;;;;3.02;76.71;100447.63;4981964;28;62418;-72
2021/01/13 09:45:12;;;;;;;1.13;0.60;;;;;;;3.11;76.84;100454.69;5014383;28;63947;-70
2021/01/13 09:47:45;;;;;;;1.75;0.80;;;;;;;3.19;76.22;100452.25;4984086;28;62692;-71
2021/01/13 09:50:13;;;;;;;0.60;0.57;;;;;;;3.22;76.25;100444.09;5001622;28;62846;-70
2021/01/13 09:52:47;;;;;;;2.70;1.05;;;;;;;3.40;76.16;100446.06;5002407;28;62639;-71
2021/01/13 09:55:17;;;;;;;3.80;0.80;;;;;;;3.33;75.91;100444.97;4991503;28;62479;-70
2021/01/13 09:57:53;;;;;;;4.05;1.00;;;;;;;3.26;76.43;100455.16;5000667;28;62421;-70
2021/01/13 10:00:27;;;;;;;2.42;0.80;;;;;;;3.15;76.96;100443.00;4998584;28;62715;-68
2021/01/13 10:02:54;;;;;;;3.03;0.80;;;;;;;3.18;77.96;100440.09;4982036;28;62719;-68
2021/01/13 10:05:24;;;;;;;2.15;1.00;;;;;;;3.20;77.66;100446.03;4992422;28;64726;-68
2021/01/13 10:07:51;;;;;;;1.35;0.90;;;;;;;3.29;77.59;100440.94;5004992;28;62711;-69
2021/01/13 10:10:23;;;;;;;1.88;1.02;;;;;;;3.22;77.61;100425.75;4995747;28;62894;-70
2021/01/13 10:12:53;;;;;;;1.50;1.10;;;;;;;3.14;77.58;100430.84;5010317;28;63040;-69
2021/01/13 10:15:22;;;;;;;26.30;3.38;;;;;;;3.07;77.60;100432.34;4984624;28;62599;-69
2021/01/13 10:17:49;;;;;;;1.48;0.70;;;;;;;3.10;78.57;100434.69;5007590;28;62631;-68
2021/01/13 10:20:18;;;;;;;2.33;1.00;;;;;;;3.10;77.70;100413.72;5007722;28;63031;-68
2021/01/13 10:22:51;;;;;;;3.97;1.17;;;;;;;3.21;77.23;100421.50;5008384;28;62803;-69
2021/01/13 10:25:33;;;;;;;1.48;0.73;;;;;;;3.34;77.32;100415.19;4999140;28;63333;-69
2021/01/13 10:28:01;;;;;;;2.55;1.58;;;;;;;3.51;76.30;100414.50;4984589;28;62572;-70
2021/01/13 10:30:28;;;;;;;1.25;0.60;;;;;;;3.64;75.77;100420.31;4994669;28;62611;-69
2021/01/13 10:32:57;;;;;;;2.35;0.95;;;;;;;3.60;76.50;100418.94;4998233;28;62919;-69
2021/01/13 10:35:39;;;;;;;3.58;0.93;;;;;;;3.59;75.95;100404.19;4981691;28;62973;-68
2021/01/13 10:38:18;;;;;;;3.10;1.00;;;;;;;3.54;75.51;100401.13;5005762;28;62560;-68
2021/01/13 10:40:49;;;;;;;3.00;0.85;;;;;;;3.59;75.46;100392.81;4989373;28;62652;-68
2021/01/13 10:43:21;;;;;;;4.22;1.30;;;;;;;3.71;75.16;100396.16;5012253;28;62496;-69
2021/01/13 10:45:57;;;;;;;2.92;1.15;;;;;;;4.07;73.48;100407.75;5003211;28;64822;-68
2021/01/13 10:48:24;;;;;;;5.88;1.55;;;;;;;4.20;73.27;100412.69;5002146;28;62491;-69
2021/01/13 10:50:53;;;;;;;5.95;1.02;;;;;;;4.14;72.70;100421.13;4994961;28;61874;-67
2021/01/13 10:53:32;;;;;;;4.43;1.20;;;;;;;3.98;72.66;100390.22;5014049;28;63329;-70
2021/01/13 10:56:08;;;;;;;4.07;1.08;;;;;;;4.01;72.64;100398.63;4992575;28;63707;-69
2021/01/13 10:58:42;;;;;;;0.90;0.60;;;;;;;3.96;72.90;100403.47;4991946;28;62345;-68
2021/01/13 11:01:10;;;;;;;5.20;1.45;;;;;;;3.82;72.61;100404.72;5001816;28;62475;-68
2021/01/13 11:03:36;;;;;;;2.97;0.88;;;;;;;4.12;72.65;100383.69;5005928;28;62858;-67
2021/01/13 11:06:02;;;;;;;3.40;1.00;;;;;;;4.34;70.84;100372.88;5006287;28;64648;-68
2021/01/13 11:08:29;;;;;;;3.20;0.70;;;;;;;4.55;69.27;100370.06;4998152;28;62640;-69
2021/01/13 11:11:07;;;;;;;2.65;0.80;;;;;;;4.83;69.11;100378.78;5008577;28;62602;-67
2021/01/13 11:13:54;;;;;;;3.15;0.98;;;;;;;4.87;68.46;100367.00;5013042;28;62645;-67
2021/01/13 11:16:22;;;;;;;5.13;1.20;;;;;;;5.03;68.53;100352.41;4994124;28;63554;-67
2021/01/13 11:18:50;;;;;;;6.03;1.13;;;;;;;5.05;68.17;100353.06;5009861;28;62651;-68
2021/01/13 11:21:18;;;;;;;7.90;1.55;;;;;;;4.97;68.32;100345.09;5006750;28;62602;-67
2021/01/13 11:23:45;;;;;;;4.85;1.25;;;;;;;5.09;68.05;100352.63;5001901;28;62827;-67
2021/01/13 11:26:12;;;;;;;2.47;0.60;;;;;;;5.11;68.58;100349.84;5004495;28;63597;-67
2021/01/13 11:28:43;;;;;;;6.93;1.65;;;;;;;4.86;68.46;100346.94;5001346;28;62606;-67
2021/01/13 11:31:11;;;;;;;1.83;0.70;;;;;;;4.82;68.35;100348.19;5003184;28;62643;-70
2021/01/13 11:33:44;;;;;;;5.60;1.42;;;;;;;4.71;68.13;100335.25;4996160;28;62892;-68
2021/01/13 11:36:11;;;;;;;3.80;1.25;;;;;;;4.54;69.23;100343.91;5000144;28;64499;-67
2021/01/13 11:38:53;;;;;;;5.10;1.10;;;;;;;4.56;69.83;100345.44;4995437;28;62546;-71
2021/01/13 11:41:38;;;;;;;4.13;0.88;;;;;;;4.79;69.18;100337.19;4994244;28;62627;-68
2021/01/13 11:44:23;;;;;;;4.93;1.42;;;;;;;4.99;67.88;100332.63;5005599;28;62421;-67
2021/01/13 11:46:56;;;;;;;5.22;1.20;;;;;;;5.40;67.21;100328.63;5005692;28;63334;-68
2021/01/13 11:49:25;;;;;;;7.75;1.85;;;;;;;5.31;66.75;100324.25;5009992;28;62432;-67
2021/01/13 11:51:53;;;;;;;1.63;0.68;;;;;;;5.54;66.12;100300.13;5014446;28;62773;-75
2021/01/13 11:54:27;;;;;;;3.35;1.20;;;;;;;5.48;65.93;100304.19;5006954;28;63223;-73
2021/01/13 11:56:55;;;;;;;4.43;1.10;;;;;;;5.78;64.30;100307.38;5009012;28;64705;-68
2021/01/13 11:59:29;;;;;;;5.07;1.15;;;;;;;5.70;65.09;100293.19;4998295;28;62405;-67
2021/01/13 12:01:59;;;;;;;2.35;1.02;;;;;;;5.57;65.51;100287.50;5006106;28;62340;-72